sensor_id;sensor_type;location;lat;lon;timestamp;pressure;altitude;pressure_sealevel;temperature;humidity
60920;BME280;59039;52.108;19.942;2023-11-19T00:01:05;101309.10;;;0.61;87.32
60920;BME280;59039;52.108;19.942;2023-11-19T00:03:30;101304.83;;;0.61;87.12
60920;BME280;59039;52.108;19.942;2023-11-19T00:05:55;101307.92;;;0.60;87.07
60920;BME280;59039;52.108;19.942;2023-11-19T00:08:20;101305.05;;;0.60;87.17
60920;BME280;59039;52.108;19.942;2023-11-19T00:10:45;101294.41;;;0.59;87.03
60920;BME280;59039;52.108;19.942;2023-11-19T00:13:11;101289.67;;;0.57;87.11
60920;BME280;59039;52.108;19.942;2023-11-19T00:15:36;101278.48;;;0.56;87.18
60920;BME280;59039;52.108;19.942;2023-11-19T00:18:01;101274.05;;;0.56;87.10
60920;BME280;59039;52.108;19.942;2023-11-19T00:20:26;101271.30;;;0.54;86.99
60920;BME280;59039;52.108;19.942;2023-11-19T00:22:52;101271.36;;;0.52;87.01
60920;BME280;59039;52.108;19.942;2023-11-19T00:25:18;101264.92;;;0.52;87.32
60920;BME280;59039;52.108;19.942;2023-11-19T00:27:43;101261.54;;;0.52;87.19
60920;BME280;59039;52.108;19.942;2023-11-19T00:30:08;101255.52;;;0.52;87.16
60920;BME280;59039;52.108;19.942;2023-11-19T00:32:34;101257.82;;;0.52;87.36
60920;BME280;59039;52.108;19.942;2023-11-19T00:34:59;101259.41;;;0.52;87.40
60920;BME280;59039;52.108;19.942;2023-11-19T00:37:24;101257.20;;;0.53;87.47
60920;BME280;59039;52.108;19.942;2023-11-19T00:39:50;101258.95;;;0.54;87.47
60920;BME280;59039;52.108;19.942;2023-11-19T00:42:15;101257.91;;;0.54;87.19
60920;BME280;59039;52.108;19.942;2023-11-19T00:44:40;101257.84;;;0.52;87.25
60920;BME280;59039;52.108;19.942;2023-11-19T00:47:05;101258.23;;;0.51;87.31
60920;BME280;59039;52.108;19.942;2023-11-19T00:49:31;101248.82;;;0.50;87.18
60920;BME280;59039;52.108;19.942;2023-11-19T00:51:56;101241.96;;;0.48;87.20
60920;BME280;59039;52.108;19.942;2023-11-19T00:54:21;101236.88;;;0.46;87.32
60920;BME280;59039;52.108;19.942;2023-11-19T00:56:46;101230.15;;;0.45;87.31
60920;BME280;59039;52.108;19.942;2023-11-19T00:59:12;101219.53;;;0.43;87.20
60920;BME280;59039;52.108;19.942;2023-11-19T01:01:37;101218.55;;;0.41;87.20
60920;BME280;59039;52.108;19.942;2023-11-19T01:04:02;101211.30;;;0.40;87.43
60920;BME280;59039;52.108;19.942;2023-11-19T01:06:31;101212.91;;;0.39;87.54
60920;BME280;59039;52.108;19.942;2023-11-19T01:08:56;101213.06;;;0.40;87.60
60920;BME280;59039;52.108;19.942;2023-11-19T01:11:23;101210.83;;;0.42;87.80
60920;BME280;59039;52.108;19.942;2023-11-19T01:13:48;101206.85;;;0.44;87.71
60920;BME280;59039;52.108;19.942;2023-11-19T01:16:14;101205.25;;;0.43;87.48
60920;BME280;59039;52.108;19.942;2023-11-19T01:18:39;101199.16;;;0.40;87.30
60920;BME280;59039;52.108;19.942;2023-11-19T01:21:05;101193.46;;;0.36;87.29
60920;BME280;59039;52.108;19.942;2023-11-19T01:23:30;101191.27;;;0.33;87.34
60920;BME280;59039;52.108;19.942;2023-11-19T01:25:55;101188.34;;;0.31;87.40
60920;BME280;59039;52.108;19.942;2023-11-19T01:28:21;101188.98;;;0.28;87.36
60920;BME280;59039;52.108;19.942;2023-11-19T01:30:46;101193.84;;;0.27;87.48
60920;BME280;59039;52.108;19.942;2023-11-19T01:33:11;101194.45;;;0.26;87.40
60920;BME280;59039;52.108;19.942;2023-11-19T01:35:36;101189.71;;;0.25;87.57
60920;BME280;59039;52.108;19.942;2023-11-19T01:38:01;101187.20;;;0.25;87.65
60920;BME280;59039;52.108;19.942;2023-11-19T01:40:27;101181.17;;;0.24;87.62
60920;BME280;59039;52.108;19.942;2023-11-19T01:42:52;101174.41;;;0.24;87.56
60920;BME280;59039;52.108;19.942;2023-11-19T01:45:28;101174.42;;;0.24;87.66
60920;BME280;59039;52.108;19.942;2023-11-19T01:47:53;101174.05;;;0.24;87.65
60920;BME280;59039;52.108;19.942;2023-11-19T01:50:19;101170.73;;;0.23;87.57
60920;BME280;59039;52.108;19.942;2023-11-19T01:52:45;101152.41;;;0.22;87.68
60920;BME280;59039;52.108;19.942;2023-11-19T01:55:10;101143.02;;;0.21;87.62
60920;BME280;59039;52.108;19.942;2023-11-19T01:57:36;101146.77;;;0.20;87.90
60920;BME280;59039;52.108;19.942;2023-11-19T02:00:02;101148.52;;;0.21;87.95
60920;BME280;59039;52.108;19.942;2023-11-19T02:02:28;101143.10;;;0.23;87.93
60920;BME280;59039;52.108;19.942;2023-11-19T02:04:53;101143.44;;;0.23;87.88
60920;BME280;59039;52.108;19.942;2023-11-19T02:07:19;101140.59;;;0.23;87.93
60920;BME280;59039;52.108;19.942;2023-11-19T02:09:44;101142.86;;;0.24;88.02
60920;BME280;59039;52.108;19.942;2023-11-19T02:12:10;101142.10;;;0.25;87.92
60920;BME280;59039;52.108;19.942;2023-11-19T02:14:35;101140.83;;;0.25;88.00
60920;BME280;59039;52.108;19.942;2023-11-19T02:17:01;101148.67;;;0.26;87.91
60920;BME280;59039;52.108;19.942;2023-11-19T02:19:26;101146.00;;;0.26;88.03
60920;BME280;59039;52.108;19.942;2023-11-19T02:21:51;101138.30;;;0.26;88.24
60920;BME280;59039;52.108;19.942;2023-11-19T02:24:17;101137.19;;;0.27;88.13
60920;BME280;59039;52.108;19.942;2023-11-19T02:29:15;101129.13;;;0.28;88.06
60920;BME280;59039;52.108;19.942;2023-11-19T02:31:40;101120.23;;;0.27;87.98
60920;BME280;59039;52.108;19.942;2023-11-19T02:34:05;101116.73;;;0.26;88.00
60920;BME280;59039;52.108;19.942;2023-11-19T02:36:31;101110.01;;;0.26;88.01
60920;BME280;59039;52.108;19.942;2023-11-19T02:38:56;101102.05;;;0.24;87.92
60920;BME280;59039;52.108;19.942;2023-11-19T02:41:21;101104.05;;;0.23;88.03
60920;BME280;59039;52.108;19.942;2023-11-19T02:43:46;101095.56;;;0.22;87.91
60920;BME280;59039;52.108;19.942;2023-11-19T02:46:11;101084.40;;;0.20;88.01
60920;BME280;59039;52.108;19.942;2023-11-19T02:48:37;101078.67;;;0.21;88.14
60920;BME280;59039;52.108;19.942;2023-11-19T02:51:03;101073.31;;;0.21;88.08
60920;BME280;59039;52.108;19.942;2023-11-19T02:53:28;101068.89;;;0.20;88.01
60920;BME280;59039;52.108;19.942;2023-11-19T02:55:53;101063.91;;;0.20;88.12
60920;BME280;59039;52.108;19.942;2023-11-19T02:58:18;101060.14;;;0.21;88.21
60920;BME280;59039;52.108;19.942;2023-11-19T03:00:44;101050.89;;;0.20;88.03
60920;BME280;59039;52.108;19.942;2023-11-19T03:03:09;101041.16;;;0.18;87.99
60920;BME280;59039;52.108;19.942;2023-11-19T03:05:34;101030.73;;;0.17;87.95
60920;BME280;59039;52.108;19.942;2023-11-19T03:07:59;101029.77;;;0.14;87.97
60920;BME280;59039;52.108;19.942;2023-11-19T03:10:24;101027.36;;;0.13;88.11
60920;BME280;59039;52.108;19.942;2023-11-19T03:12:50;101015.46;;;0.12;88.25
60920;BME280;59039;52.108;19.942;2023-11-19T03:15:15;101012.27;;;0.12;88.20
60920;BME280;59039;52.108;19.942;2023-11-19T03:17:41;101006.61;;;0.11;88.42
60920;BME280;59039;52.108;19.942;2023-11-19T03:20:09;101003.89;;;0.12;88.53
60920;BME280;59039;52.108;19.942;2023-11-19T03:22:36;100998.15;;;0.12;88.54
60920;BME280;59039;52.108;19.942;2023-11-19T03:25:02;100995.58;;;0.14;88.43
60920;BME280;59039;52.108;19.942;2023-11-19T03:27:27;100991.98;;;0.15;88.46
60920;BME280;59039;52.108;19.942;2023-11-19T03:29:52;100993.70;;;0.16;88.80
60920;BME280;59039;52.108;19.942;2023-11-19T03:32:18;101002.15;;;0.18;88.96
60920;BME280;59039;52.108;19.942;2023-11-19T03:34:43;101003.45;;;0.21;88.77
60920;BME280;59039;52.108;19.942;2023-11-19T03:37:08;101004.42;;;0.23;88.88
60920;BME280;59039;52.108;19.942;2023-11-19T03:39:33;100999.56;;;0.24;88.79
60920;BME280;59039;52.108;19.942;2023-11-19T03:41:58;100998.07;;;0.26;88.86
60920;BME280;59039;52.108;19.942;2023-11-19T03:44:26;100993.35;;;0.27;88.64
60920;BME280;59039;52.108;19.942;2023-11-19T03:46:52;100987.55;;;0.26;88.41
60920;BME280;59039;52.108;19.942;2023-11-19T03:49:17;100977.79;;;0.25;88.65
60920;BME280;59039;52.108;19.942;2023-11-19T03:51:42;100972.98;;;0.25;88.58
60920;BME280;59039;52.108;19.942;2023-11-19T03:54:07;100972.83;;;0.24;88.48
60920;BME280;59039;52.108;19.942;2023-11-19T03:56:32;100969.28;;;0.24;88.64
60920;BME280;59039;52.108;19.942;2023-11-19T03:58:58;100965.86;;;0.24;88.56
60920;BME280;59039;52.108;19.942;2023-11-19T04:01:23;100963.90;;;0.24;88.75
60920;BME280;59039;52.108;19.942;2023-11-19T04:03:48;100959.80;;;0.24;88.72
60920;BME280;59039;52.108;19.942;2023-11-19T04:06:13;100955.72;;;0.24;88.71
60920;BME280;59039;52.108;19.942;2023-11-19T04:08:38;100952.67;;;0.24;88.87
60920;BME280;59039;52.108;19.942;2023-11-19T04:11:04;100948.91;;;0.25;88.77
60920;BME280;59039;52.108;19.942;2023-11-19T04:13:29;100944.98;;;0.25;88.74
60920;BME280;59039;52.108;19.942;2023-11-19T04:15:55;100936.80;;;0.24;88.79
60920;BME280;59039;52.108;19.942;2023-11-19T04:18:20;100933.23;;;0.25;88.92
60920;BME280;59039;52.108;19.942;2023-11-19T04:20:45;100931.42;;;0.26;89.12
60920;BME280;59039;52.108;19.942;2023-11-19T04:23:10;100929.53;;;0.27;89.04
60920;BME280;59039;52.108;19.942;2023-11-19T04:25:35;100923.95;;;0.29;89.11
60920;BME280;59039;52.108;19.942;2023-11-19T04:28:01;100927.47;;;0.29;89.10
60920;BME280;59039;52.108;19.942;2023-11-19T04:30:26;100925.80;;;0.31;88.88
60920;BME280;59039;52.108;19.942;2023-11-19T04:32:51;100919.35;;;0.31;88.85
60920;BME280;59039;52.108;19.942;2023-11-19T04:35:16;100914.95;;;0.30;88.87
60920;BME280;59039;52.108;19.942;2023-11-19T04:37:42;100904.80;;;0.30;88.97
60920;BME280;59039;52.108;19.942;2023-11-19T04:40:07;100898.75;;;0.30;88.96
60920;BME280;59039;52.108;19.942;2023-11-19T04:42:33;100894.58;;;0.31;89.27
60920;BME280;59039;52.108;19.942;2023-11-19T04:44:58;100890.75;;;0.33;89.24
60920;BME280;59039;52.108;19.942;2023-11-19T04:47:23;100885.90;;;0.34;89.14
60920;BME280;59039;52.108;19.942;2023-11-19T04:49:48;100889.27;;;0.34;89.15
60920;BME280;59039;52.108;19.942;2023-11-19T04:52:13;100879.77;;;0.35;89.24
60920;BME280;59039;52.108;19.942;2023-11-19T04:54:42;100874.39;;;0.36;89.06
60920;BME280;59039;52.108;19.942;2023-11-19T04:57:08;100863.35;;;0.35;89.08
60920;BME280;59039;52.108;19.942;2023-11-19T04:59:34;100860.67;;;0.35;89.14
60920;BME280;59039;52.108;19.942;2023-11-19T05:01:59;100862.65;;;0.35;88.99
60920;BME280;59039;52.108;19.942;2023-11-19T05:04:24;100859.33;;;0.34;88.89
60920;BME280;59039;52.108;19.942;2023-11-19T05:06:49;100853.83;;;0.33;88.89
60920;BME280;59039;52.108;19.942;2023-11-19T05:09:14;100847.64;;;0.32;89.02
60920;BME280;59039;52.108;19.942;2023-11-19T05:11:40;100846.44;;;0.32;88.84
60920;BME280;59039;52.108;19.942;2023-11-19T05:14:05;100843.61;;;0.31;88.88
60920;BME280;59039;52.108;19.942;2023-11-19T05:16:31;100839.59;;;0.30;89.09
60920;BME280;59039;52.108;19.942;2023-11-19T05:18:56;100841.33;;;0.31;89.22
60920;BME280;59039;52.108;19.942;2023-11-19T05:21:21;100837.86;;;0.32;89.28
60920;BME280;59039;52.108;19.942;2023-11-19T05:23:47;100828.02;;;0.33;89.25
60920;BME280;59039;52.108;19.942;2023-11-19T05:26:19;100822.48;;;0.33;89.23
60920;BME280;59039;52.108;19.942;2023-11-19T05:28:44;100821.25;;;0.32;89.15
60920;BME280;59039;52.108;19.942;2023-11-19T05:31:10;100820.03;;;0.32;89.11
60920;BME280;59039;52.108;19.942;2023-11-19T05:33:35;100814.67;;;0.32;89.23
60920;BME280;59039;52.108;19.942;2023-11-19T05:36:00;100809.33;;;0.32;89.19
60920;BME280;59039;52.108;19.942;2023-11-19T05:38:25;100810.91;;;0.33;89.39
60920;BME280;59039;52.108;19.942;2023-11-19T05:40:51;100812.64;;;0.34;89.48
60920;BME280;59039;52.108;19.942;2023-11-19T05:43:16;100810.29;;;0.34;89.34
60920;BME280;59039;52.108;19.942;2023-11-19T05:45:41;100811.32;;;0.35;89.43
60920;BME280;59039;52.108;19.942;2023-11-19T05:48:06;100806.98;;;0.36;89.51
60920;BME280;59039;52.108;19.942;2023-11-19T05:50:31;100805.48;;;0.37;89.63
60920;BME280;59039;52.108;19.942;2023-11-19T05:52:57;100808.77;;;0.39;89.50
60920;BME280;59039;52.108;19.942;2023-11-19T05:55:22;100805.74;;;0.39;89.26
60920;BME280;59039;52.108;19.942;2023-11-19T05:57:47;100803.59;;;0.40;89.33
60920;BME280;59039;52.108;19.942;2023-11-19T06:00:12;100805.58;;;0.39;89.23
60920;BME280;59039;52.108;19.942;2023-11-19T06:02:38;100806.84;;;0.39;89.13
60920;BME280;59039;52.108;19.942;2023-11-19T06:05:04;100801.30;;;0.39;89.23
60920;BME280;59039;52.108;19.942;2023-11-19T06:07:29;100792.88;;;0.40;89.49
60920;BME280;59039;52.108;19.942;2023-11-19T06:09:55;100789.22;;;0.42;89.51
60920;BME280;59039;52.108;19.942;2023-11-19T06:12:20;100783.60;;;0.44;89.44
60920;BME280;59039;52.108;19.942;2023-11-19T06:14:45;100775.70;;;0.45;89.44
60920;BME280;59039;52.108;19.942;2023-11-19T06:17:10;100772.80;;;0.46;89.44
60920;BME280;59039;52.108;19.942;2023-11-19T06:19:35;100769.41;;;0.49;89.35
60920;BME280;59039;52.108;19.942;2023-11-19T06:22:01;100768.11;;;0.50;89.43
60920;BME280;59039;52.108;19.942;2023-11-19T06:24:26;100760.04;;;0.51;89.29
60920;BME280;59039;52.108;19.942;2023-11-19T06:26:51;100755.23;;;0.51;89.30
60920;BME280;59039;52.108;19.942;2023-11-19T06:29:16;100751.70;;;0.50;89.12
60920;BME280;59039;52.108;19.942;2023-11-19T06:31:41;100750.11;;;0.50;89.26
60920;BME280;59039;52.108;19.942;2023-11-19T06:34:07;100748.02;;;0.49;89.19
60920;BME280;59039;52.108;19.942;2023-11-19T06:36:32;100740.95;;;0.48;89.31
60920;BME280;59039;52.108;19.942;2023-11-19T06:38:57;100740.02;;;0.48;89.35
60920;BME280;59039;52.108;19.942;2023-11-19T06:41:22;100737.19;;;0.48;89.21
60920;BME280;59039;52.108;19.942;2023-11-19T06:43:47;100738.34;;;0.47;89.29
60920;BME280;59039;52.108;19.942;2023-11-19T06:46:16;100731.41;;;0.46;89.37
60920;BME280;59039;52.108;19.942;2023-11-19T06:48:42;100736.77;;;0.46;89.41
60920;BME280;59039;52.108;19.942;2023-11-19T06:51:07;100735.54;;;0.46;89.23
60920;BME280;59039;52.108;19.942;2023-11-19T06:53:32;100734.63;;;0.46;89.29
60920;BME280;59039;52.108;19.942;2023-11-19T06:55:57;100729.15;;;0.45;89.24
60920;BME280;59039;52.108;19.942;2023-11-19T06:58:22;100722.55;;;0.45;89.22
60920;BME280;59039;52.108;19.942;2023-11-19T07:00:48;100723.27;;;0.45;89.15
60920;BME280;59039;52.108;19.942;2023-11-19T07:03:13;100721.73;;;0.44;89.07
60920;BME280;59039;52.108;19.942;2023-11-19T07:05:38;100718.40;;;0.43;89.04
60920;BME280;59039;52.108;19.942;2023-11-19T07:08:05;100718.12;;;0.41;89.03
60920;BME280;59039;52.108;19.942;2023-11-19T07:10:31;100715.63;;;0.41;89.12
60920;BME280;59039;52.108;19.942;2023-11-19T07:12:56;100717.20;;;0.42;89.27
60920;BME280;59039;52.108;19.942;2023-11-19T07:15:21;100712.16;;;0.43;89.10
60920;BME280;59039;52.108;19.942;2023-11-19T07:17:46;100704.30;;;0.44;89.13
60920;BME280;59039;52.108;19.942;2023-11-19T07:20:12;100691.98;;;0.43;89.09
60920;BME280;59039;52.108;19.942;2023-11-19T07:22:37;100689.14;;;0.44;89.05
60920;BME280;59039;52.108;19.942;2023-11-19T07:25:02;100689.83;;;0.44;89.08
60920;BME280;59039;52.108;19.942;2023-11-19T07:27:27;100684.83;;;0.44;89.04
60920;BME280;59039;52.108;19.942;2023-11-19T07:29:53;100682.54;;;0.44;88.99
60920;BME280;59039;52.108;19.942;2023-11-19T07:32:18;100681.86;;;0.42;89.10
60920;BME280;59039;52.108;19.942;2023-11-19T07:34:43;100681.50;;;0.43;89.04
60920;BME280;59039;52.108;19.942;2023-11-19T07:37:08;100682.35;;;0.44;89.04
60920;BME280;59039;52.108;19.942;2023-11-19T07:39:33;100679.27;;;0.45;89.08
60920;BME280;59039;52.108;19.942;2023-11-19T07:41:59;100672.37;;;0.47;89.10
60920;BME280;59039;52.108;19.942;2023-11-19T07:44:24;100671.75;;;0.48;89.19
60920;BME280;59039;52.108;19.942;2023-11-19T07:46:49;100668.29;;;0.50;89.12
60920;BME280;59039;52.108;19.942;2023-11-19T07:49:14;100667.52;;;0.51;88.97
60920;BME280;59039;52.108;19.942;2023-11-19T07:51:40;100671.79;;;0.51;89.16
60920;BME280;59039;52.108;19.942;2023-11-19T07:54:05;100667.65;;;0.52;89.10
60920;BME280;59039;52.108;19.942;2023-11-19T07:56:34;100663.20;;;0.55;89.27
60920;BME280;59039;52.108;19.942;2023-11-19T07:58:59;100657.76;;;0.56;89.32
60920;BME280;59039;52.108;19.942;2023-11-19T08:01:25;100657.44;;;0.59;89.23
60920;BME280;59039;52.108;19.942;2023-11-19T08:03:50;100651.31;;;0.60;89.20
60920;BME280;59039;52.108;19.942;2023-11-19T08:06:15;100651.92;;;0.62;89.30
60920;BME280;59039;52.108;19.942;2023-11-19T08:08:40;100648.83;;;0.63;89.29
60920;BME280;59039;52.108;19.942;2023-11-19T08:11:05;100645.14;;;0.65;89.23
60920;BME280;59039;52.108;19.942;2023-11-19T08:13:31;100631.84;;;0.67;89.19
60920;BME280;59039;52.108;19.942;2023-11-19T08:15:56;100625.05;;;0.67;89.16
60920;BME280;59039;52.108;19.942;2023-11-19T08:18:21;100620.86;;;0.69;89.11
60920;BME280;59039;52.108;19.942;2023-11-19T08:20:46;100608.55;;;0.69;89.19
60920;BME280;59039;52.108;19.942;2023-11-19T08:23:11;100601.00;;;0.70;89.12
60920;BME280;59039;52.108;19.942;2023-11-19T08:25:37;100594.16;;;0.71;89.04
60920;BME280;59039;52.108;19.942;2023-11-19T08:28:02;100586.17;;;0.71;89.15
60920;BME280;59039;52.108;19.942;2023-11-19T08:30:27;100583.84;;;0.71;89.10
60920;BME280;59039;52.108;19.942;2023-11-19T08:32:52;100585.77;;;0.71;89.08
60920;BME280;59039;52.108;19.942;2023-11-19T08:35:17;100583.39;;;0.72;88.92
60920;BME280;59039;52.108;19.942;2023-11-19T08:37:43;100585.84;;;0.73;88.98
60920;BME280;59039;52.108;19.942;2023-11-19T08:40:08;100582.18;;;0.75;88.87
60920;BME280;59039;52.108;19.942;2023-11-19T08:42:33;100580.95;;;0.77;89.11
60920;BME280;59039;52.108;19.942;2023-11-19T08:44:59;100575.81;;;0.80;89.20
60920;BME280;59039;52.108;19.942;2023-11-19T08:47:24;100567.95;;;0.83;89.16
60920;BME280;59039;52.108;19.942;2023-11-19T08:49:52;100561.23;;;0.86;89.07
60920;BME280;59039;52.108;19.942;2023-11-19T08:52:17;100562.85;;;0.88;89.11
60920;BME280;59039;52.108;19.942;2023-11-19T08:54:43;100563.98;;;0.90;88.91
60920;BME280;59039;52.108;19.942;2023-11-19T08:57:08;100560.78;;;0.93;88.97
60920;BME280;59039;52.108;19.942;2023-11-19T08:59:34;100554.04;;;0.95;88.89
60920;BME280;59039;52.108;19.942;2023-11-19T09:01:59;100553.55;;;0.98;88.82
60920;BME280;59039;52.108;19.942;2023-11-19T09:04:24;100547.71;;;1.00;88.87
60920;BME280;59039;52.108;19.942;2023-11-19T09:06:50;100542.05;;;1.02;88.80
60920;BME280;59039;52.108;19.942;2023-11-19T09:09:15;100533.01;;;1.04;88.88
60920;BME280;59039;52.108;19.942;2023-11-19T09:11:40;100527.46;;;1.04;88.64
60920;BME280;59039;52.108;19.942;2023-11-19T09:14:06;100518.91;;;1.04;88.58
60920;BME280;59039;52.108;19.942;2023-11-19T09:16:31;100514.80;;;1.04;88.52
60920;BME280;59039;52.108;19.942;2023-11-19T09:18:56;100510.30;;;1.05;88.43
60920;BME280;59039;52.108;19.942;2023-11-19T09:21:21;100505.85;;;1.05;88.36
60920;BME280;59039;52.108;19.942;2023-11-19T09:23:46;100506.93;;;1.05;88.21
60920;BME280;59039;52.108;19.942;2023-11-19T09:26:12;100505.94;;;1.06;88.28
60920;BME280;59039;52.108;19.942;2023-11-19T09:28:37;100504.42;;;1.08;88.20
60920;BME280;59039;52.108;19.942;2023-11-19T09:31:02;100506.97;;;1.10;88.37
60920;BME280;59039;52.108;19.942;2023-11-19T09:33:27;100499.27;;;1.10;88.27
60920;BME280;59039;52.108;19.942;2023-11-19T09:35:53;100498.77;;;1.13;88.25
60920;BME280;59039;52.108;19.942;2023-11-19T09:38:18;100491.61;;;1.16;88.20
60920;BME280;59039;52.108;19.942;2023-11-19T09:40:43;100488.91;;;1.19;88.28
60920;BME280;59039;52.108;19.942;2023-11-19T09:43:08;100486.27;;;1.22;88.18
60920;BME280;59039;52.108;19.942;2023-11-19T09:45:50;100480.50;;;1.23;88.04
60920;BME280;59039;52.108;19.942;2023-11-19T09:48:19;100472.16;;;1.25;87.95
60920;BME280;59039;52.108;19.942;2023-11-19T09:50:47;100466.60;;;1.28;88.00
60920;BME280;59039;52.108;19.942;2023-11-19T09:53:12;100456.73;;;1.29;88.12
60920;BME280;59039;52.108;19.942;2023-11-19T09:55:37;100450.20;;;1.31;87.89
60920;BME280;59039;52.108;19.942;2023-11-19T09:58:03;100451.28;;;1.34;88.04
60920;BME280;59039;52.108;19.942;2023-11-19T10:00:28;100443.98;;;1.36;88.04
60920;BME280;59039;52.108;19.942;2023-11-19T10:02:55;100441.86;;;1.39;88.03
60920;BME280;59039;52.108;19.942;2023-11-19T10:05:22;100440.69;;;1.40;88.06
60920;BME280;59039;52.108;19.942;2023-11-19T10:07:49;100433.77;;;1.42;87.86
60920;BME280;59039;52.108;19.942;2023-11-19T10:10:14;100428.61;;;1.45;87.88
60920;BME280;59039;52.108;19.942;2023-11-19T10:12:39;100426.86;;;1.47;87.88
60920;BME280;59039;52.108;19.942;2023-11-19T10:15:06;100420.33;;;1.49;87.69
60920;BME280;59039;52.108;19.942;2023-11-19T10:17:37;100417.45;;;1.52;87.65
60920;BME280;59039;52.108;19.942;2023-11-19T10:20:03;100406.40;;;1.54;87.65
60920;BME280;59039;52.108;19.942;2023-11-19T10:22:28;100399.90;;;1.55;87.68
60920;BME280;59039;52.108;19.942;2023-11-19T10:24:54;100394.52;;;1.56;87.53
60920;BME280;59039;52.108;19.942;2023-11-19T10:27:19;100387.02;;;1.56;87.40
60920;BME280;59039;52.108;19.942;2023-11-19T10:29:45;100378.78;;;1.56;87.42
60920;BME280;59039;52.108;19.942;2023-11-19T10:32:12;100373.07;;;1.57;87.39
60920;BME280;59039;52.108;19.942;2023-11-19T10:34:37;100359.16;;;1.58;87.48
60920;BME280;59039;52.108;19.942;2023-11-19T10:37:02;100344.23;;;1.60;87.48
60920;BME280;59039;52.108;19.942;2023-11-19T10:39:53;100332.58;;;1.61;87.31
60920;BME280;59039;52.108;19.942;2023-11-19T10:42:18;100326.27;;;1.62;87.37
60920;BME280;59039;52.108;19.942;2023-11-19T10:44:44;100317.30;;;1.62;87.34
60920;BME280;59039;52.108;19.942;2023-11-19T10:47:10;100310.55;;;1.62;87.16
60920;BME280;59039;52.108;19.942;2023-11-19T10:49:36;100305.94;;;1.61;87.14
60920;BME280;59039;52.108;19.942;2023-11-19T10:52:02;100295.66;;;1.60;86.84
60920;BME280;59039;52.108;19.942;2023-11-19T10:54:30;100290.41;;;1.59;86.74
60920;BME280;59039;52.108;19.942;2023-11-19T10:56:59;100294.27;;;1.57;86.68
60920;BME280;59039;52.108;19.942;2023-11-19T10:59:28;100294.06;;;1.55;86.59
60920;BME280;59039;52.108;19.942;2023-11-19T11:01:56;100287.42;;;1.55;86.74
60920;BME280;59039;52.108;19.942;2023-11-19T11:04:25;100280.77;;;1.56;86.78
60920;BME280;59039;52.108;19.942;2023-11-19T11:06:51;100276.80;;;1.57;86.82
60920;BME280;59039;52.108;19.942;2023-11-19T11:09:19;100269.22;;;1.58;86.82
60920;BME280;59039;52.108;19.942;2023-11-19T11:11:47;100265.27;;;1.58;86.70
60920;BME280;59039;52.108;19.942;2023-11-19T11:14:13;100256.45;;;1.59;86.74
60920;BME280;59039;52.108;19.942;2023-11-19T11:16:44;100251.03;;;1.60;86.60
60920;BME280;59039;52.108;19.942;2023-11-19T11:19:11;100245.14;;;1.60;86.49
60920;BME280;59039;52.108;19.942;2023-11-19T11:21:39;100240.37;;;1.62;86.48
60920;BME280;59039;52.108;19.942;2023-11-19T11:29:26;100221.09;;;1.67;86.48
60920;BME280;59039;52.108;19.942;2023-11-19T11:37:19;100203.45;;;1.72;86.50
60920;BME280;59039;52.108;19.942;2023-11-19T11:39:46;100199.10;;;1.73;86.41
60920;BME280;59039;52.108;19.942;2023-11-19T11:50:19;100191.96;;;1.75;86.29
60920;BME280;59039;52.108;19.942;2023-11-19T11:55:25;100191.37;;;1.79;86.29
60920;BME280;59039;52.108;19.942;2023-11-19T11:57:51;100187.98;;;1.79;86.20
60920;BME280;59039;52.108;19.942;2023-11-19T12:02:59;100189.80;;;1.81;86.12
60920;BME280;59039;52.108;19.942;2023-11-19T12:05:25;100186.14;;;1.82;85.89
60920;BME280;59039;52.108;19.942;2023-11-19T12:07:59;100185.24;;;1.85;86.06
60920;BME280;59039;52.108;19.942;2023-11-19T12:10:25;100184.39;;;1.87;86.10
60920;BME280;59039;52.108;19.942;2023-11-19T12:12:53;100180.29;;;1.87;85.89
60920;BME280;59039;52.108;19.942;2023-11-19T12:15:19;100178.48;;;1.87;86.02
60920;BME280;59039;52.108;19.942;2023-11-19T12:17:48;100179.08;;;1.89;86.00
60920;BME280;59039;52.108;19.942;2023-11-19T12:20:14;100171.77;;;1.88;86.07
60920;BME280;59039;52.108;19.942;2023-11-19T12:22:40;100163.38;;;1.88;85.89
60920;BME280;59039;52.108;19.942;2023-11-19T12:25:07;100157.66;;;1.88;85.96
60920;BME280;59039;52.108;19.942;2023-11-19T12:27:33;100155.61;;;1.90;85.94
60920;BME280;59039;52.108;19.942;2023-11-19T12:29:58;100147.70;;;1.90;85.95
60920;BME280;59039;52.108;19.942;2023-11-19T12:32:23;100143.79;;;1.93;85.96
60920;BME280;59039;52.108;19.942;2023-11-19T12:34:49;100140.98;;;1.95;85.91
60920;BME280;59039;52.108;19.942;2023-11-19T12:37:14;100137.40;;;1.95;85.89
60920;BME280;59039;52.108;19.942;2023-11-19T12:39:39;100137.70;;;1.95;85.82
60920;BME280;59039;52.108;19.942;2023-11-19T12:42:04;100132.25;;;1.97;85.87
60920;BME280;59039;52.108;19.942;2023-11-19T12:44:30;100127.42;;;1.97;85.77
60920;BME280;59039;52.108;19.942;2023-11-19T12:47:08;100128.33;;;1.96;85.80
60920;BME280;59039;52.108;19.942;2023-11-19T12:49:33;100118.86;;;1.97;85.72
60920;BME280;59039;52.108;19.942;2023-11-19T12:51:59;100119.85;;;1.98;85.85
60920;BME280;59039;52.108;19.942;2023-11-19T12:54:37;100112.95;;;1.99;85.94
60920;BME280;59039;52.108;19.942;2023-11-19T12:57:03;100109.79;;;2.01;85.87
60920;BME280;59039;52.108;19.942;2023-11-19T12:59:28;100105.64;;;2.01;85.85
60920;BME280;59039;52.108;19.942;2023-11-19T13:01:57;100098.13;;;2.02;85.92
60920;BME280;59039;52.108;19.942;2023-11-19T13:04:23;100089.14;;;2.02;85.83
60920;BME280;59039;52.108;19.942;2023-11-19T13:06:52;100083.42;;;2.02;85.95
60920;BME280;59039;52.108;19.942;2023-11-19T13:09:24;100072.70;;;2.02;85.99